EZY212 EGCC-LDSP
Flight info
| Callsign | EZY212 |
|---|---|
| Flight time | N/A |
| Altitude | 39000 |
| Route | SANBA N859 HON L15 MOTOX DCT RUCAC DCT LESDO DCT ETINO DCT LASAT DCT DEVDI DCT RIPUS DCT RESIA DCT TORPO |
| Aircraft | A20N/M-SDE2E3FGHIRWXY/LB1 |
Departure
| Time | 2026-05-01 14:16 |
|---|---|
| Airport | Manchester Airport (EGCC) |
Arrival
| Time | N/A |
|---|---|
| Airport | Split Saint Jerome Airport (LDSP) |
| Time | Latitude | Longitude | Altitude | Speed | Heading |
|---|---|---|---|---|---|
| 2026-05-01 13:23 | 53.36165 | -2.27697 | 233 ft | 0 kts | 14° |
| 2026-05-01 14:06 | 53.36164 | -2.27698 | 260 ft | 2 kts | 14° |
| 2026-05-01 14:06 | 53.36148 | -2.27704 | 233 ft | 2 kts | 11° |
| 2026-05-01 14:06 | 53.36131 | -2.27709 | 232 ft | 2 kts | 7° |
| 2026-05-01 14:07 | 53.36115 | -2.27712 | 235 ft | 2 kts | 360° |
| 2026-05-01 14:07 | 53.36099 | -2.27709 | 234 ft | 2 kts | 342° |
| 2026-05-01 14:07 | 53.36085 | -2.27696 | 235 ft | 2 kts | 306° |
| 2026-05-01 14:08 | 53.36078 | -2.27673 | 236 ft | 0 kts | 285° |
| 2026-05-01 14:09 | 53.36078 | -2.27674 | 236 ft | 1 kts | 285° |
| 2026-05-01 14:09 | 53.36082 | -2.27695 | 235 ft | 3 kts | 286° |
| 2026-05-01 14:09 | 53.36087 | -2.27728 | 233 ft | 3 kts | 285° |
| 2026-05-01 14:10 | 53.36093 | -2.27769 | 232 ft | 4 kts | 281° |
| 2026-05-01 14:10 | 53.36089 | -2.27820 | 235 ft | 5 kts | 248° |
| 2026-05-01 14:10 | 53.36063 | -2.27878 | 236 ft | 8 kts | 229° |
| 2026-05-01 14:10 | 53.36022 | -2.27929 | 232 ft | 8 kts | 187° |
| 2026-05-01 14:11 | 53.35971 | -2.27868 | 232 ft | 11 kts | 138° |
| 2026-05-01 14:11 | 53.35843 | -2.27793 | 235 ft | 7 kts | 126° |
| 2026-05-01 14:11 | 53.35803 | -2.27713 | 236 ft | 10 kts | 133° |
| 2026-05-01 14:12 | 53.35734 | -2.27644 | 232 ft | 12 kts | 161° |
| 2026-05-01 14:12 | 53.35670 | -2.27595 | 233 ft | 10 kts | 142° |
| 2026-05-01 14:12 | 53.35614 | -2.27519 | 233 ft | 10 kts | 140° |
| 2026-05-01 14:12 | 53.35585 | -2.27478 | 235 ft | 6 kts | 140° |
| 2026-05-01 14:13 | 53.35542 | -2.27420 | 234 ft | 10 kts | 142° |
| 2026-05-01 14:13 | 53.35482 | -2.27341 | 240 ft | 11 kts | 142° |
| 2026-05-01 14:13 | 53.35412 | -2.27245 | 239 ft | 15 kts | 139° |
| 2026-05-01 14:13 | 53.35303 | -2.27203 | 233 ft | 16 kts | 199° |
| 2026-05-01 14:14 | 53.35226 | -2.27338 | 235 ft | 17 kts | 233° |
| 2026-05-01 14:14 | 53.35166 | -2.27464 | 235 ft | 8 kts | 232° |
| 2026-05-01 14:14 | 53.35113 | -2.27527 | 233 ft | 10 kts | 175° |
| 2026-05-01 14:14 | 53.35029 | -2.27481 | 234 ft | 16 kts | 171° |
| 2026-05-01 14:15 | 53.34948 | -2.27467 | 233 ft | 11 kts | 186° |
| 2026-05-01 14:15 | 53.34903 | -2.27548 | 232 ft | 10 kts | 228° |
| 2026-05-01 14:15 | 53.34840 | -2.27669 | 230 ft | 18 kts | 231° |
| 2026-05-01 14:15 | 53.34724 | -2.27909 | 230 ft | 46 kts | 231° |
| 2026-05-01 14:16 | 53.34388 | -2.28603 | 229 ft | 105 kts | 231° |
| 2026-05-01 14:16 | 53.33832 | -2.29754 | 277 ft | 145 kts | 231° |
| 2026-05-01 14:16 | 53.33183 | -2.31052 | 624 ft | 160 kts | 230° |
| 2026-05-01 14:16 | 53.32439 | -2.32584 | 1052 ft | 182 kts | 235° |
| 2026-05-01 14:17 | 53.31920 | -2.34631 | 1494 ft | 201 kts | 259° |
| 2026-05-01 14:17 | 53.31931 | -2.36979 | 2101 ft | 205 kts | 278° |
| 2026-05-01 14:17 | 53.32275 | -2.39368 | 2685 ft | 217 kts | 282° |
| 2026-05-01 14:17 | 53.32563 | -2.41874 | 3390 ft | 217 kts | 264° |
| 2026-05-01 14:18 | 53.32140 | -2.44202 | 4276 ft | 209 kts | 230° |
| 2026-05-01 14:18 | 53.30991 | -2.45544 | 5218 ft | 203 kts | 193° |
| 2026-05-01 14:18 | 53.29575 | -2.45518 | 6058 ft | 208 kts | 169° |
| 2026-05-01 14:18 | 53.28663 | -2.45053 | 6707 ft | 208 kts | 162° |
| 2026-05-01 14:19 | 53.26801 | -2.43873 | 7661 ft | 223 kts | 162° |
| 2026-05-01 14:19 | 53.25292 | -2.42861 | 8152 ft | 245 kts | 160° |
| 2026-05-01 14:19 | 53.23668 | -2.41709 | 8754 ft | 259 kts | 158° |
| 2026-05-01 14:19 | 53.22088 | -2.40483 | 9632 ft | 263 kts | 156° |
| 2026-05-01 14:20 | 53.20442 | -2.39117 | 10492 ft | 269 kts | 155° |
| 2026-05-01 14:20 | 53.16841 | -2.35999 | 11151 ft | 314 kts | 154° |
| 2026-05-01 14:20 | 53.14883 | -2.34280 | 11838 ft | 321 kts | 154° |
| 2026-05-01 14:21 | 53.12901 | -2.32536 | 12662 ft | 325 kts | 154° |
| 2026-05-01 14:21 | 53.10889 | -2.30772 | 13451 ft | 330 kts | 154° |
| 2026-05-01 14:21 | 53.08842 | -2.28982 | 14206 ft | 334 kts | 154° |
| 2026-05-01 14:22 | 53.04677 | -2.25353 | 15626 ft | 341 kts | 154° |
| 2026-05-01 14:22 | 53.02562 | -2.23513 | 16339 ft | 345 kts | 154° |
| 2026-05-01 14:22 | 53.00422 | -2.21656 | 17014 ft | 349 kts | 154° |
| 2026-05-01 14:22 | 52.98257 | -2.19777 | 17711 ft | 353 kts | 155° |
| 2026-05-01 14:23 | 52.96059 | -2.17872 | 18349 ft | 358 kts | 155° |
| 2026-05-01 14:23 | 52.93839 | -2.15949 | 18964 ft | 361 kts | 155° |
| 2026-05-01 14:23 | 52.91606 | -2.14018 | 19590 ft | 364 kts | 155° |
| 2026-05-01 14:23 | 52.89354 | -2.12072 | 20188 ft | 367 kts | 155° |
| 2026-05-01 14:24 | 52.87083 | -2.10113 | 20790 ft | 370 kts | 155° |
| 2026-05-01 14:24 | 52.84793 | -2.08139 | 21387 ft | 372 kts | 155° |
| 2026-05-01 14:24 | 52.82484 | -2.06153 | 21973 ft | 375 kts | 155° |
| 2026-05-01 14:24 | 52.80159 | -2.04154 | 22548 ft | 379 kts | 155° |
| 2026-05-01 14:25 | 52.77812 | -2.02139 | 23114 ft | 382 kts | 155° |
| 2026-05-01 14:25 | 52.75445 | -2.00109 | 23610 ft | 387 kts | 155° |
| 2026-05-01 14:25 | 52.73048 | -1.98057 | 24105 ft | 388 kts | 155° |
| 2026-05-01 14:25 | 52.70649 | -1.96004 | 24614 ft | 390 kts | 155° |
| 2026-05-01 14:26 | 52.68231 | -1.93938 | 25076 ft | 392 kts | 155° |
| 2026-05-01 14:26 | 52.63352 | -1.89778 | 25978 ft | 397 kts | 155° |
| 2026-05-01 14:26 | 52.60896 | -1.87688 | 26409 ft | 400 kts | 155° |
| 2026-05-01 14:27 | 52.58418 | -1.85582 | 26830 ft | 403 kts | 155° |
| 2026-05-01 14:27 | 52.55921 | -1.83463 | 27247 ft | 405 kts | 155° |
| 2026-05-01 14:27 | 52.53407 | -1.81332 | 27661 ft | 407 kts | 155° |
| 2026-05-01 14:28 | 52.48375 | -1.77076 | 28458 ft | 411 kts | 155° |
| 2026-05-01 14:28 | 52.45826 | -1.74923 | 28838 ft | 414 kts | 155° |
| 2026-05-01 14:28 | 52.43260 | -1.72759 | 29180 ft | 416 kts | 155° |
| 2026-05-01 14:28 | 52.40677 | -1.70584 | 29529 ft | 418 kts | 155° |
| 2026-05-01 14:29 | 52.38104 | -1.68326 | 29866 ft | 422 kts | 152° |
| 2026-05-01 14:29 | 52.35654 | -1.65632 | 30206 ft | 426 kts | 145° |
| 2026-05-01 14:30 | 52.29204 | -1.55356 | 31069 ft | 437 kts | 136° |
| 2026-05-01 14:30 | 52.27104 | -1.51747 | 31373 ft | 439 kts | 136° |
| 2026-05-01 14:30 | 52.25004 | -1.48157 | 31781 ft | 437 kts | 136° |
| 2026-05-01 14:31 | 52.20787 | -1.40980 | 32458 ft | 438 kts | 136° |
| 2026-05-01 14:31 | 52.18680 | -1.37406 | 32836 ft | 437 kts | 136° |
| 2026-05-01 14:31 | 52.16574 | -1.33838 | 33210 ft | 436 kts | 136° |
| 2026-05-01 14:31 | 52.14469 | -1.30278 | 33561 ft | 436 kts | 136° |
| 2026-05-01 14:32 | 52.12369 | -1.26732 | 33913 ft | 435 kts | 136° |
| 2026-05-01 14:32 | 52.10266 | -1.23185 | 34227 ft | 435 kts | 137° |
| 2026-05-01 14:32 | 52.08168 | -1.19653 | 34489 ft | 435 kts | 137° |
| 2026-05-01 14:32 | 52.06065 | -1.16118 | 34760 ft | 434 kts | 137° |
| 2026-05-01 14:33 | 52.03965 | -1.12593 | 35020 ft | 434 kts | 137° |
| 2026-05-01 14:33 | 52.01866 | -1.09075 | 35288 ft | 434 kts | 136° |
| 2026-05-01 14:33 | 51.99763 | -1.05565 | 35523 ft | 434 kts | 136° |
| 2026-05-01 14:33 | 51.97657 | -1.02056 | 35750 ft | 434 kts | 136° |
| 2026-05-01 14:34 | 51.95558 | -0.98553 | 35982 ft | 434 kts | 136° |
| 2026-05-01 14:34 | 51.93484 | -0.95093 | 36209 ft | 433 kts | 136° |
| 2026-05-01 14:34 | 51.91387 | -0.91600 | 36429 ft | 433 kts | 136° |
| 2026-05-01 14:34 | 51.89294 | -0.88119 | 36766 ft | 429 kts | 136° |
| 2026-05-01 14:35 | 51.87229 | -0.84688 | 37289 ft | 421 kts | 136° |
| 2026-05-01 14:35 | 51.85205 | -0.81330 | 37833 ft | 412 kts | 137° |
| 2026-05-01 14:35 | 51.83213 | -0.78031 | 38103 ft | 411 kts | 137° |
| 2026-05-01 14:36 | 51.79171 | -0.71360 | 38136 ft | 418 kts | 136° |
| 2026-05-01 14:36 | 51.75071 | -0.64613 | 38237 ft | 423 kts | 136° |
| 2026-05-01 14:36 | 51.73015 | -0.61234 | 38552 ft | 419 kts | 136° |
| 2026-05-01 14:37 | 51.71000 | -0.57923 | 38967 ft | 411 kts | 137° |
| 2026-05-01 14:37 | 51.68997 | -0.54639 | 39096 ft | 411 kts | 137° |
| 2026-05-01 14:37 | 51.66987 | -0.51351 | 39128 ft | 413 kts | 137° |
| 2026-05-01 14:38 | 51.63027 | -0.44886 | 39128 ft | 418 kts | 137° |
| 2026-05-01 14:38 | 51.59093 | -0.38479 | 39130 ft | 423 kts | 137° |
| 2026-05-01 14:39 | 51.54921 | -0.31701 | 39129 ft | 429 kts | 137° |
| 2026-05-01 14:39 | 51.50698 | -0.24859 | 39132 ft | 434 kts | 137° |
| 2026-05-01 14:40 | 51.46437 | -0.17973 | 39135 ft | 434 kts | 137° |
| 2026-05-01 14:40 | 51.42181 | -0.11115 | 39157 ft | 434 kts | 137° |
| 2026-05-01 14:41 | 51.37919 | -0.04268 | 39157 ft | 434 kts | 137° |
| 2026-05-01 14:41 | 51.34043 | 0.03048 | 39184 ft | 436 kts | 127° |
| 2026-05-01 14:42 | 51.31042 | 0.11481 | 39118 ft | 439 kts | 116° |
| 2026-05-01 14:42 | 51.28759 | 0.20483 | 39087 ft | 440 kts | 114° |
| 2026-05-01 14:43 | 51.26467 | 0.29543 | 39064 ft | 440 kts | 114° |
| 2026-05-01 14:43 | 51.24153 | 0.38592 | 39048 ft | 440 kts | 114° |
| 2026-05-01 14:44 | 51.21830 | 0.47635 | 39047 ft | 441 kts | 114° |
| 2026-05-01 14:44 | 51.18343 | 0.61136 | 39060 ft | 438 kts | 114° |
| 2026-05-01 14:45 | 51.14840 | 0.74620 | 39104 ft | 439 kts | 115° |
| 2026-05-01 14:46 | 51.12499 | 0.83589 | 39138 ft | 439 kts | 115° |
| 2026-05-01 14:46 | 51.08971 | 0.97035 | 39203 ft | 439 kts | 115° |
| 2026-05-01 14:47 | 51.06611 | 1.05989 | 39213 ft | 439 kts | 115° |
| 2026-05-01 14:48 | 51.03055 | 1.19406 | 39204 ft | 439 kts | 115° |
| 2026-05-01 14:48 | 50.99486 | 1.32785 | 39206 ft | 439 kts | 115° |
| 2026-05-01 14:49 | 50.94719 | 1.50541 | 39210 ft | 439 kts | 115° |
| 2026-05-01 14:50 | 50.89823 | 1.68244 | 39207 ft | 437 kts | 120° |
| 2026-05-01 14:51 | 50.84531 | 1.79861 | 39199 ft | 432 kts | 136° |
| 2026-05-01 14:52 | 50.78024 | 1.89708 | 39194 ft | 431 kts | 138° |
| 2026-05-01 14:53 | 50.71509 | 1.99507 | 39195 ft | 431 kts | 138° |
| 2026-05-01 14:53 | 50.67909 | 2.04901 | 39196 ft | 431 kts | 138° |
| 2026-05-01 14:54 | 50.63561 | 2.11398 | 39195 ft | 431 kts | 138° |
| 2026-05-01 14:54 | 50.59213 | 2.17876 | 39194 ft | 430 kts | 138° |
| 2026-05-01 14:55 | 50.54864 | 2.24340 | 39187 ft | 430 kts | 138° |
| 2026-05-01 14:55 | 50.50520 | 2.30779 | 39185 ft | 429 kts | 138° |
| 2026-05-01 14:56 | 50.46173 | 2.37206 | 39186 ft | 429 kts | 138° |
| 2026-05-01 14:56 | 50.41825 | 2.43616 | 39188 ft | 429 kts | 138° |
| 2026-05-01 14:57 | 50.37476 | 2.50011 | 39189 ft | 429 kts | 138° |
| 2026-05-01 14:57 | 50.30948 | 2.59578 | 39191 ft | 429 kts | 138° |
| 2026-05-01 14:58 | 50.26593 | 2.65941 | 39193 ft | 428 kts | 138° |
| 2026-05-01 14:58 | 50.22262 | 2.72251 | 39197 ft | 428 kts | 138° |
| 2026-05-01 14:59 | 50.17899 | 2.78591 | 39202 ft | 428 kts | 138° |
| 2026-05-01 14:59 | 50.13535 | 2.84917 | 39194 ft | 428 kts | 138° |
| 2026-05-01 15:00 | 50.06984 | 2.94382 | 39203 ft | 428 kts | 139° |
| 2026-05-01 15:01 | 50.02608 | 3.00683 | 39203 ft | 429 kts | 139° |
| 2026-05-01 15:01 | 49.98236 | 3.06962 | 39202 ft | 429 kts | 139° |
| 2026-05-01 15:02 | 49.93850 | 3.13246 | 39207 ft | 429 kts | 139° |
| 2026-05-01 15:02 | 49.89456 | 3.19525 | 39200 ft | 429 kts | 139° |
| 2026-05-01 15:03 | 49.85061 | 3.25788 | 39205 ft | 429 kts | 139° |
| 2026-05-01 15:03 | 49.80733 | 3.32160 | 39211 ft | 430 kts | 134° |
| 2026-05-01 15:04 | 49.76936 | 3.39332 | 39212 ft | 431 kts | 130° |
| 2026-05-01 15:04 | 49.73215 | 3.46606 | 39217 ft | 432 kts | 130° |
| 2026-05-01 15:05 | 49.69471 | 3.53872 | 39218 ft | 432 kts | 130° |
| 2026-05-01 15:05 | 49.65720 | 3.61122 | 39203 ft | 432 kts | 130° |
| 2026-05-01 15:06 | 49.61964 | 3.68357 | 39213 ft | 432 kts | 130° |
| 2026-05-01 15:06 | 49.58200 | 3.75589 | 39215 ft | 432 kts | 130° |
| 2026-05-01 15:07 | 49.54431 | 3.82811 | 39225 ft | 433 kts | 130° |
| 2026-05-01 15:07 | 49.50680 | 3.89980 | 39227 ft | 433 kts | 130° |
| 2026-05-01 15:08 | 49.46896 | 3.97191 | 39231 ft | 433 kts | 130° |
| 2026-05-01 15:08 | 49.43104 | 4.04399 | 39225 ft | 434 kts | 130° |
| 2026-05-01 15:09 | 49.39309 | 4.11592 | 39229 ft | 434 kts | 130° |
| 2026-05-01 15:09 | 49.35506 | 4.18780 | 39228 ft | 434 kts | 130° |
| 2026-05-01 15:10 | 49.31699 | 4.25957 | 39227 ft | 434 kts | 131° |
| 2026-05-01 15:10 | 49.25991 | 4.36681 | 39225 ft | 434 kts | 131° |
| 2026-05-01 15:11 | 49.20260 | 4.47406 | 39212 ft | 434 kts | 131° |
| 2026-05-01 15:12 | 49.16434 | 4.54540 | 39215 ft | 434 kts | 131° |
| 2026-05-01 15:12 | 49.10685 | 4.65226 | 39223 ft | 434 kts | 131° |
| 2026-05-01 15:14 | 49.01074 | 4.82994 | 39228 ft | 435 kts | 131° |
| 2026-05-01 15:14 | 48.95290 | 4.93629 | 39226 ft | 435 kts | 131° |
| 2026-05-01 15:15 | 48.87692 | 5.07955 | 39226 ft | 437 kts | 125° |
| 2026-05-01 15:16 | 48.81005 | 5.23379 | 39230 ft | 437 kts | 125° |
| 2026-05-01 15:18 | 48.72622 | 5.42500 | 39232 ft | 435 kts | 125° |
| 2026-05-01 15:19 | 48.65918 | 5.57689 | 39238 ft | 436 kts | 125° |
| 2026-05-01 15:19 | 48.60852 | 5.69108 | 39237 ft | 436 kts | 125° |
| 2026-05-01 15:20 | 48.55770 | 5.80518 | 39244 ft | 437 kts | 125° |
| 2026-05-01 15:21 | 48.52375 | 5.88113 | 39247 ft | 437 kts | 125° |
| 2026-05-01 15:21 | 48.48967 | 5.95717 | 39242 ft | 437 kts | 125° |
| 2026-05-01 15:22 | 48.43846 | 6.07099 | 39237 ft | 437 kts | 125° |
| 2026-05-01 15:22 | 48.40425 | 6.14677 | 39238 ft | 438 kts | 125° |
| 2026-05-01 15:23 | 48.36996 | 6.22253 | 39240 ft | 438 kts | 125° |
| 2026-05-01 15:23 | 48.33562 | 6.29817 | 39243 ft | 438 kts | 125° |
| 2026-05-01 15:24 | 48.30140 | 6.37335 | 39246 ft | 438 kts | 125° |
| 2026-05-01 15:24 | 48.26696 | 6.44879 | 39242 ft | 438 kts | 125° |
| 2026-05-01 15:25 | 48.23237 | 6.52433 | 39241 ft | 439 kts | 125° |
| 2026-05-01 15:25 | 48.19787 | 6.59949 | 39243 ft | 439 kts | 125° |
| 2026-05-01 15:26 | 48.16317 | 6.67491 | 39245 ft | 439 kts | 125° |
| 2026-05-01 15:26 | 48.12789 | 6.74963 | 39249 ft | 439 kts | 127° |
| 2026-05-01 15:27 | 48.09204 | 6.82369 | 39254 ft | 440 kts | 127° |
| 2026-05-01 15:28 | 48.03821 | 6.93502 | 39244 ft | 441 kts | 126° |
| 2026-05-01 15:28 | 48.00231 | 7.00926 | 39242 ft | 441 kts | 126° |
| 2026-05-01 15:29 | 47.94831 | 7.12051 | 39248 ft | 441 kts | 126° |
| 2026-05-01 15:30 | 47.87603 | 7.26866 | 39229 ft | 443 kts | 126° |
| 2026-05-01 15:31 | 47.76714 | 7.49042 | 39240 ft | 444 kts | 126° |
| 2026-05-01 15:32 | 47.69382 | 7.63871 | 39239 ft | 447 kts | 126° |
| 2026-05-01 15:34 | 47.58328 | 7.86087 | 39245 ft | 448 kts | 126° |